Selinsgrove, PA

10:13 PM EDT on September 01, 2014 (GMT -0400)
On Creekside - Along Scenic Penns Creek | Change Station
CLOSE
Current Station
Personal Weather Station
Location: New Berlin, PA
Elevation: 513 ft
Nearby Weather Stations

Elev 513 ft 40.88 °N, 76.99 °W | Updated 1 second ago

Mostly Cloudy
Mostly Cloudy
73.2 °F
Feels Like 77 °F
N
0.0
Wind Variable Wind from North
Gusts 0.0 mph

Today
High -- | Low -- °F
--% Chance of Precip.
Yesterday
High -- | Low -- °F
Precip. -- in
6:34 AM 7:39 PM
Waxing Crescent, 46% visible
Pressure 29.96 in
Visibility 8.0 miles
Clouds Few 6500 ft
Mostly Cloudy 9000 ft
Mostly Cloudy 12000 ft
Heat Index 77 °F
Dew Point 43 °F
Humidity 34%
Rainfall 0.00 in
Snow Depth Not available.
UV 0 out of 12
Pollen 5.00 out of 12
Air Quality Not available.
Flu Activity Not available.
METAR KSEG 020153Z AUTO 30003KT 8SM FEW065 BKN090 BKN120 23/22 A2996 RMK AO2 SLP143 T02280217

More Conditions Fewer Conditions

Pressure 29.96 in
Visibility 8.0 miles
Clouds Few 6500 ft
Mostly Cloudy 9000 ft
Mostly Cloudy 12000 ft
Heat Index 77 °F
Dew Point 43 °F
Humidity 34%
Rainfall 0.00 in
Snow Depth Not available.
UV 0 out of 12
Pollen 5.00 out of 12
Air Quality Not available.
Flu Activity Not available.
METAR KSEG 020153Z AUTO 30003KT 8SM FEW065 BKN090 BKN120 23/22 A2996 RMK AO2 SLP143 T02280217

More Conditions Fewer Conditions

10-Day Weather Forecast

Almanac

Astronomy

Sep. 01, 2014 Rise Set
Actual Time 6:34 AM EDT 7:39 PM EDT
Civil Twilight 6:06 AM EDT 8:08 PM EDT
Nautical Twilight 5:32 AM EDT 8:41 PM EDT
Astronomical Twilight 4:57 AM EDT 9:16 PM EDT
Moon 1:20 PM EDT (9/1) 11:36 PM EDT (9/1)
Length of Visible Light 14h 01m
Length of Day
13h 05m
Tomorrow will be 2m 37s shorter.
Waxing Crescent, 46% of the Moon is Illuminated
Today
Waxing Crescent
Sep 2
First Quarter
Sep 8
Full
Sep 15
Last Quarter
Sep 24
New

Today's Extremes

State Highs State Lows

Community

WunderPhotos

Upload Photos

1,749,493 photos uploaded!

Nearby

Snow Depth

Station Depth Elevation
No new snow has been reported.

Earthquake Activity

City Distance Mag. Time & Date
No recent earthquake activity has been reported nearby.
Minimum magnitude displayed is 2.5.

Coastal Water Temperatures

Place Temperature
No Stations Reporting

Nearby Weather Stations